sensor_id;sensor_type;location;lat;lon;timestamp;pressure;altitude;pressure_sealevel;temperature;humidity
76434;BME280;65265;53.200;6.080;2022-12-29T00:01:10;99702.56;;;9.87;93.88
76434;BME280;65265;53.200;6.080;2022-12-29T00:06:03;99696.56;;;9.87;93.80
76434;BME280;65265;53.200;6.080;2022-12-29T00:10:54;99699.00;;;9.82;93.61
76434;BME280;65265;53.200;6.080;2022-12-29T00:15:46;99690.91;;;9.98;93.24
76434;BME280;65265;53.200;6.080;2022-12-29T00:20:38;99686.88;;;10.06;92.89
76434;BME280;65265;53.200;6.080;2022-12-29T00:25:48;99698.78;;;10.06;92.76
76434;BME280;65265;53.200;6.080;2022-12-29T00:30:58;99674.84;;;10.02;92.80
76434;BME280;65265;53.200;6.080;2022-12-29T00:36:11;99681.88;;;10.12;92.47
76434;BME280;65265;53.200;6.080;2022-12-29T00:41:06;99663.06;;;10.07;92.37
76434;BME280;65265;53.200;6.080;2022-12-29T00:46:15;99659.66;;;10.08;91.87
76434;BME280;65265;53.200;6.080;2022-12-29T00:51:07;99665.44;;;10.01;91.92
76434;BME280;65265;53.200;6.080;2022-12-29T00:55:59;99659.53;;;10.02;91.82
76434;BME280;65265;53.200;6.080;2022-12-29T01:00:52;99654.50;;;10.05;91.63
76434;BME280;65265;53.200;6.080;2022-12-29T01:05:44;99663.19;;;10.13;91.13
76434;BME280;65265;53.200;6.080;2022-12-29T01:10:35;99659.66;;;10.08;91.51
76434;BME280;65265;53.200;6.080;2022-12-29T01:15:27;99641.78;;;10.08;90.88
76434;BME280;65265;53.200;6.080;2022-12-29T01:20:20;99638.50;;;10.14;90.86
76434;BME280;65265;53.200;6.080;2022-12-29T01:25:11;99641.81;;;10.10;91.30
76434;BME280;65265;53.200;6.080;2022-12-29T01:30:03;99625.69;;;10.12;90.92
76434;BME280;65265;53.200;6.080;2022-12-29T01:34:55;99623.19;;;10.14;90.98
76434;BME280;65265;53.200;6.080;2022-12-29T01:39:48;99628.22;;;10.11;91.28
76434;BME280;65265;53.200;6.080;2022-12-29T01:44:57;99622.19;;;10.07;92.21
76434;BME280;65265;53.200;6.080;2022-12-29T01:49:53;99618.66;;;10.02;92.55
76434;BME280;65265;53.200;6.080;2022-12-29T01:54:50;99606.69;;;10.01;93.82
76434;BME280;65265;53.200;6.080;2022-12-29T01:59:49;99606.41;;;9.89;94.81
76434;BME280;65265;53.200;6.080;2022-12-29T02:04:43;99597.84;;;9.87;95.14
76434;BME280;65265;53.200;6.080;2022-12-29T02:09:35;99598.47;;;9.77;95.52
76434;BME280;65265;53.200;6.080;2022-12-29T02:14:28;99602.63;;;9.72;95.94
76434;BME280;65265;53.200;6.080;2022-12-29T02:19:41;99601.75;;;9.72;96.11
76434;BME280;65265;53.200;6.080;2022-12-29T02:30:15;99581.78;;;9.54;96.58
76434;BME280;65265;53.200;6.080;2022-12-29T02:35:16;99577.31;;;9.46;96.92
76434;BME280;65265;53.200;6.080;2022-12-29T02:40:18;99595.72;;;9.35;97.08
76434;BME280;65265;53.200;6.080;2022-12-29T02:45:20;99601.44;;;9.25;97.04
76434;BME280;65265;53.200;6.080;2022-12-29T02:50:18;99586.59;;;9.09;95.82
76434;BME280;65265;53.200;6.080;2022-12-29T02:55:12;99589.13;;;9.09;95.66
76434;BME280;65265;53.200;6.080;2022-12-29T03:00:05;99591.09;;;9.19;95.69
76434;BME280;65265;53.200;6.080;2022-12-29T03:05:09;99587.84;;;9.26;95.93
76434;BME280;65265;53.200;6.080;2022-12-29T03:10:14;99580.31;;;9.30;96.05
76434;BME280;65265;53.200;6.080;2022-12-29T03:15:10;99571.75;;;9.28;95.69
76434;BME280;65265;53.200;6.080;2022-12-29T03:20:25;99582.75;;;9.26;95.16
76434;BME280;65265;53.200;6.080;2022-12-29T03:25:22;99558.66;;;9.13;94.56
76434;BME280;65265;53.200;6.080;2022-12-29T03:30:15;99569.56;;;9.08;94.26
76434;BME280;65265;53.200;6.080;2022-12-29T03:35:08;99563.59;;;9.07;93.39
76434;BME280;65265;53.200;6.080;2022-12-29T03:40:03;99551.47;;;8.99;93.03
76434;BME280;65265;53.200;6.080;2022-12-29T03:44:56;99564.97;;;8.95;92.80
76434;BME280;65265;53.200;6.080;2022-12-29T03:49:48;99572.41;;;8.87;92.55
76434;BME280;65265;53.200;6.080;2022-12-29T03:54:39;99569.66;;;8.80;92.50
76434;BME280;65265;53.200;6.080;2022-12-29T03:59:31;99573.28;;;8.88;92.04
76434;BME280;65265;53.200;6.080;2022-12-29T04:04:24;99579.13;;;8.84;91.92
76434;BME280;65265;53.200;6.080;2022-12-29T04:09:16;99592.53;;;8.77;91.71
76434;BME280;65265;53.200;6.080;2022-12-29T04:14:07;99577.19;;;8.75;91.44
76434;BME280;65265;53.200;6.080;2022-12-29T04:18:59;99576.28;;;8.73;90.93
76434;BME280;65265;53.200;6.080;2022-12-29T04:23:51;99590.81;;;8.76;90.19
76434;BME280;65265;53.200;6.080;2022-12-29T04:28:43;99595.00;;;8.74;89.20
76434;BME280;65265;53.200;6.080;2022-12-29T04:33:34;99581.34;;;8.72;88.42
76434;BME280;65265;53.200;6.080;2022-12-29T04:38:26;99592.34;;;8.71;87.81
76434;BME280;65265;53.200;6.080;2022-12-29T04:43:18;99598.94;;;8.63;87.68
76434;BME280;65265;53.200;6.080;2022-12-29T04:48:12;99605.50;;;8.55;87.72
76434;BME280;65265;53.200;6.080;2022-12-29T04:53:05;99610.34;;;8.46;87.96
76434;BME280;65265;53.200;6.080;2022-12-29T04:57:56;99608.41;;;8.37;87.99
76434;BME280;65265;53.200;6.080;2022-12-29T05:02:49;99611.72;;;8.35;87.69
76434;BME280;65265;53.200;6.080;2022-12-29T05:07:41;99604.09;;;8.35;87.63
76434;BME280;65265;53.200;6.080;2022-12-29T05:12:33;99599.94;;;8.38;87.62
76434;BME280;65265;53.200;6.080;2022-12-29T05:17:25;99611.72;;;8.33;87.93
76434;BME280;65265;53.200;6.080;2022-12-29T05:22:18;99607.31;;;8.28;88.24
76434;BME280;65265;53.200;6.080;2022-12-29T05:27:10;99609.94;;;8.31;88.48
76434;BME280;65265;53.200;6.080;2022-12-29T05:32:01;99612.63;;;8.37;88.02
76434;BME280;65265;53.200;6.080;2022-12-29T05:36:52;99610.06;;;8.35;88.16
76434;BME280;65265;53.200;6.080;2022-12-29T05:41:45;99603.13;;;8.31;88.65
76434;BME280;65265;53.200;6.080;2022-12-29T05:46:37;99614.28;;;8.35;88.25
76434;BME280;65265;53.200;6.080;2022-12-29T05:51:29;99620.59;;;8.47;87.88
76434;BME280;65265;53.200;6.080;2022-12-29T05:56:20;99620.16;;;8.62;87.54
76434;BME280;65265;53.200;6.080;2022-12-29T06:01:13;99617.84;;;8.71;86.50
76434;BME280;65265;53.200;6.080;2022-12-29T06:06:05;99601.72;;;8.72;85.48
76434;BME280;65265;53.200;6.080;2022-12-29T06:10:57;99609.28;;;8.67;85.15
76434;BME280;65265;53.200;6.080;2022-12-29T06:15:49;99618.50;;;8.64;84.94
76434;BME280;65265;53.200;6.080;2022-12-29T06:20:42;99598.81;;;8.58;84.59
76434;BME280;65265;53.200;6.080;2022-12-29T06:25:33;99622.59;;;8.59;83.99
76434;BME280;65265;53.200;6.080;2022-12-29T06:30:26;99619.91;;;8.53;84.45
76434;BME280;65265;53.200;6.080;2022-12-29T06:35:17;99601.72;;;8.41;85.15
76434;BME280;65265;53.200;6.080;2022-12-29T06:40:11;99619.56;;;8.41;85.03
76434;BME280;65265;53.200;6.080;2022-12-29T06:45:03;99610.91;;;8.36;84.91
76434;BME280;65265;53.200;6.080;2022-12-29T06:49:55;99626.09;;;8.33;84.90
76434;BME280;65265;53.200;6.080;2022-12-29T06:54:47;99627.84;;;8.34;85.11
76434;BME280;65265;53.200;6.080;2022-12-29T06:59:40;99634.56;;;8.32;84.46
76434;BME280;65265;53.200;6.080;2022-12-29T07:04:31;99636.09;;;8.27;84.64
76434;BME280;65265;53.200;6.080;2022-12-29T07:09:23;99623.63;;;8.34;84.30
76434;BME280;65265;53.200;6.080;2022-12-29T07:14:14;99626.03;;;8.30;84.30
76434;BME280;65265;53.200;6.080;2022-12-29T07:19:07;99630.38;;;8.34;84.10
76434;BME280;65265;53.200;6.080;2022-12-29T07:23:58;99645.66;;;8.34;84.59
76434;BME280;65265;53.200;6.080;2022-12-29T07:28:50;99644.34;;;8.46;84.02
76434;BME280;65265;53.200;6.080;2022-12-29T07:33:41;99643.72;;;8.55;83.95
76434;BME280;65265;53.200;6.080;2022-12-29T07:38:34;99649.09;;;8.64;83.15
76434;BME280;65265;53.200;6.080;2022-12-29T07:43:26;99640.56;;;8.62;83.38
76434;BME280;65265;53.200;6.080;2022-12-29T07:48:17;99653.50;;;8.69;83.16
76434;BME280;65265;53.200;6.080;2022-12-29T07:53:09;99649.22;;;8.68;84.18
76434;BME280;65265;53.200;6.080;2022-12-29T07:58:02;99651.91;;;8.73;84.41
76434;BME280;65265;53.200;6.080;2022-12-29T08:02:53;99673.19;;;8.75;83.95
76434;BME280;65265;53.200;6.080;2022-12-29T08:07:45;99674.03;;;8.75;83.33
76434;BME280;65265;53.200;6.080;2022-12-29T08:12:38;99673.22;;;8.76;82.79
76434;BME280;65265;53.200;6.080;2022-12-29T08:17:30;99667.19;;;8.73;82.49
76434;BME280;65265;53.200;6.080;2022-12-29T08:22:22;99666.25;;;8.71;82.13
76434;BME280;65265;53.200;6.080;2022-12-29T08:27:14;99670.50;;;8.70;81.79
76434;BME280;65265;53.200;6.080;2022-12-29T08:32:05;99662.81;;;8.69;81.57
76434;BME280;65265;53.200;6.080;2022-12-29T08:36:58;99678.72;;;8.60;82.05
76434;BME280;65265;53.200;6.080;2022-12-29T08:41:50;99678.78;;;8.63;82.80
76434;BME280;65265;53.200;6.080;2022-12-29T08:46:42;99674.59;;;8.64;83.21
76434;BME280;65265;53.200;6.080;2022-12-29T08:51:33;99674.72;;;8.70;83.59
76434;BME280;65265;53.200;6.080;2022-12-29T08:56:27;99664.53;;;8.70;84.27
76434;BME280;65265;53.200;6.080;2022-12-29T09:01:18;99669.97;;;8.82;83.40
76434;BME280;65265;53.200;6.080;2022-12-29T09:06:10;99676.66;;;8.77;84.60
76434;BME280;65265;53.200;6.080;2022-12-29T09:11:06;99686.97;;;8.81;84.25
76434;BME280;65265;53.200;6.080;2022-12-29T09:16:00;99676.91;;;8.86;83.79
76434;BME280;65265;53.200;6.080;2022-12-29T09:20:56;99686.22;;;8.84;84.04
76434;BME280;65265;53.200;6.080;2022-12-29T09:25:47;99681.75;;;8.77;85.21
76434;BME280;65265;53.200;6.080;2022-12-29T09:30:39;99712.75;;;8.62;86.29
76434;BME280;65265;53.200;6.080;2022-12-29T09:35:31;99715.09;;;8.55;87.34
76434;BME280;65265;53.200;6.080;2022-12-29T09:40:26;99711.63;;;8.53;87.57
76434;BME280;65265;53.200;6.080;2022-12-29T09:45:25;99709.94;;;8.53;88.43
76434;BME280;65265;53.200;6.080;2022-12-29T09:50:23;99728.66;;;8.54;89.26
76434;BME280;65265;53.200;6.080;2022-12-29T09:55:19;99736.81;;;8.44;90.89
76434;BME280;65265;53.200;6.080;2022-12-29T10:00:14;99739.09;;;8.35;91.82
76434;BME280;65265;53.200;6.080;2022-12-29T10:05:22;99750.84;;;8.30;92.31
76434;BME280;65265;53.200;6.080;2022-12-29T10:10:30;99774.44;;;8.24;92.34
76434;BME280;65265;53.200;6.080;2022-12-29T10:15:38;99773.41;;;8.19;92.32
76434;BME280;65265;53.200;6.080;2022-12-29T10:20:33;99786.75;;;8.14;92.44
76434;BME280;65265;53.200;6.080;2022-12-29T10:25:38;99788.50;;;8.15;92.34
76434;BME280;65265;53.200;6.080;2022-12-29T10:30:32;99803.03;;;8.17;92.48
76434;BME280;65265;53.200;6.080;2022-12-29T10:35:28;99806.44;;;8.18;92.22
76434;BME280;65265;53.200;6.080;2022-12-29T10:40:25;99816.69;;;8.19;92.21
76434;BME280;65265;53.200;6.080;2022-12-29T10:45:21;99827.13;;;8.27;92.50
76434;BME280;65265;53.200;6.080;2022-12-29T10:50:14;99837.47;;;8.31;92.77
76434;BME280;65265;53.200;6.080;2022-12-29T10:55:12;99835.88;;;8.35;92.82
76434;BME280;65265;53.200;6.080;2022-12-29T11:00:09;99846.28;;;8.41;92.21
76434;BME280;65265;53.200;6.080;2022-12-29T11:05:07;99868.41;;;8.43;91.86
76434;BME280;65265;53.200;6.080;2022-12-29T11:10:18;99868.88;;;8.57;90.30
76434;BME280;65265;53.200;6.080;2022-12-29T11:15:14;99873.34;;;8.64;88.68
76434;BME280;65265;53.200;6.080;2022-12-29T11:20:28;99872.09;;;8.78;86.74
76434;BME280;65265;53.200;6.080;2022-12-29T11:25:19;99885.00;;;8.82;85.59
76434;BME280;65265;53.200;6.080;2022-12-29T11:30:23;99895.50;;;8.93;84.34
76434;BME280;65265;53.200;6.080;2022-12-29T11:35:31;99913.19;;;8.87;85.27
76434;BME280;65265;53.200;6.080;2022-12-29T11:40:23;99919.03;;;8.84;84.44
76434;BME280;65265;53.200;6.080;2022-12-29T11:45:17;99929.25;;;8.84;84.22
76434;BME280;65265;53.200;6.080;2022-12-29T11:50:17;99936.94;;;8.86;84.25
76434;BME280;65265;53.200;6.080;2022-12-29T11:55:18;99955.56;;;8.83;84.70
76434;BME280;65265;53.200;6.080;2022-12-29T12:00:16;99959.16;;;8.90;84.10
76434;BME280;65265;53.200;6.080;2022-12-29T12:05:21;99961.78;;;8.91;84.03
76434;BME280;65265;53.200;6.080;2022-12-29T12:10:19;99977.06;;;8.91;83.05
76434;BME280;65265;53.200;6.080;2022-12-29T12:15:13;100001.59;;;8.88;81.06
76434;BME280;65265;53.200;6.080;2022-12-29T12:20:14;99985.41;;;8.87;80.46
76434;BME280;65265;53.200;6.080;2022-12-29T12:25:11;100005.34;;;8.99;80.24
76434;BME280;65265;53.200;6.080;2022-12-29T12:30:11;100015.97;;;8.86;80.85
76434;BME280;65265;53.200;6.080;2022-12-29T12:35:07;100021.69;;;8.79;80.41
76434;BME280;65265;53.200;6.080;2022-12-29T12:40:15;100028.00;;;8.90;81.32
76434;BME280;65265;53.200;6.080;2022-12-29T12:45:32;100035.59;;;9.13;80.82
76434;BME280;65265;53.200;6.080;2022-12-29T12:50:38;100031.84;;;9.04;80.11
76434;BME280;65265;53.200;6.080;2022-12-29T12:55:43;100043.22;;;8.87;80.70
76434;BME280;65265;53.200;6.080;2022-12-29T13:00:49;100053.91;;;8.77;81.02
76434;BME280;65265;53.200;6.080;2022-12-29T13:05:53;100053.66;;;8.69;80.76
76434;BME280;65265;53.200;6.080;2022-12-29T13:10:50;100050.63;;;8.81;80.94
76434;BME280;65265;53.200;6.080;2022-12-29T13:15:52;100045.66;;;8.84;81.34
76434;BME280;65265;53.200;6.080;2022-12-29T13:20:51;100066.47;;;8.96;80.20
76434;BME280;65265;53.200;6.080;2022-12-29T13:25:48;100073.97;;;8.91;80.33
76434;BME280;65265;53.200;6.080;2022-12-29T13:30:49;100088.63;;;8.73;80.61
76434;BME280;65265;53.200;6.080;2022-12-29T13:35:54;100083.34;;;8.69;80.52
76434;BME280;65265;53.200;6.080;2022-12-29T13:40:50;100091.88;;;8.69;81.71
76434;BME280;65265;53.200;6.080;2022-12-29T13:45:45;100102.00;;;8.68;81.86
76434;BME280;65265;53.200;6.080;2022-12-29T13:50:45;100110.84;;;8.77;81.61
76434;BME280;65265;53.200;6.080;2022-12-29T13:55:45;100112.59;;;8.78;81.62
76434;BME280;65265;53.200;6.080;2022-12-29T14:00:48;100110.47;;;8.67;81.84
76434;BME280;65265;53.200;6.080;2022-12-29T14:05:45;100131.03;;;8.71;81.13
76434;BME280;65265;53.200;6.080;2022-12-29T14:10:54;100127.31;;;8.62;81.17
76434;BME280;65265;53.200;6.080;2022-12-29T14:15:53;100133.97;;;8.58;81.00
76434;BME280;65265;53.200;6.080;2022-12-29T14:20:53;100130.19;;;8.49;80.70
76434;BME280;65265;53.200;6.080;2022-12-29T14:25:58;100132.31;;;8.37;81.73
76434;BME280;65265;53.200;6.080;2022-12-29T14:30:52;100141.56;;;8.35;81.66
76434;BME280;65265;53.200;6.080;2022-12-29T14:35:49;100139.03;;;8.35;81.68
76434;BME280;65265;53.200;6.080;2022-12-29T14:40:43;100135.84;;;8.18;82.62
76434;BME280;65265;53.200;6.080;2022-12-29T14:45:35;100145.72;;;8.11;83.01
76434;BME280;65265;53.200;6.080;2022-12-29T14:50:37;100147.91;;;8.02;83.47
76434;BME280;65265;53.200;6.080;2022-12-29T14:55:37;100161.72;;;7.86;84.41
76434;BME280;65265;53.200;6.080;2022-12-29T15:00:33;100161.97;;;7.92;84.53
76434;BME280;65265;53.200;6.080;2022-12-29T15:05:30;100152.31;;;7.84;85.00
76434;BME280;65265;53.200;6.080;2022-12-29T15:10:24;100152.16;;;7.81;85.26
76434;BME280;65265;53.200;6.080;2022-12-29T15:15:20;100153.09;;;7.83;85.36
76434;BME280;65265;53.200;6.080;2022-12-29T15:20:23;100160.63;;;7.80;85.83
76434;BME280;65265;53.200;6.080;2022-12-29T15:25:16;100157.78;;;7.72;86.10
76434;BME280;65265;53.200;6.080;2022-12-29T15:30:13;100169.69;;;7.73;86.46
76434;BME280;65265;53.200;6.080;2022-12-29T15:35:24;100166.22;;;7.71;86.44
76434;BME280;65265;53.200;6.080;2022-12-29T15:40:22;100171.03;;;7.65;86.75
76434;BME280;65265;53.200;6.080;2022-12-29T15:45:15;100174.53;;;7.67;87.27
76434;BME280;65265;53.200;6.080;2022-12-29T15:50:13;100189.84;;;7.69;88.11
76434;BME280;65265;53.200;6.080;2022-12-29T15:55:19;100210.31;;;7.72;89.17
76434;BME280;65265;53.200;6.080;2022-12-29T16:00:22;100215.81;;;7.60;89.92
76434;BME280;65265;53.200;6.080;2022-12-29T16:05:15;100205.38;;;7.54;90.66
76434;BME280;65265;53.200;6.080;2022-12-29T16:10:25;100193.38;;;7.31;90.11
76434;BME280;65265;53.200;6.080;2022-12-29T16:15:19;100197.38;;;7.06;89.38
76434;BME280;65265;53.200;6.080;2022-12-29T16:20:17;100187.25;;;6.89;88.83
76434;BME280;65265;53.200;6.080;2022-12-29T16:25:16;100189.16;;;6.74;88.57
76434;BME280;65265;53.200;6.080;2022-12-29T16:30:20;100192.75;;;6.60;88.48
76434;BME280;65265;53.200;6.080;2022-12-29T16:35:17;100195.75;;;6.51;89.11
76434;BME280;65265;53.200;6.080;2022-12-29T16:40:33;100200.03;;;6.52;90.11
76434;BME280;65265;53.200;6.080;2022-12-29T16:51:04;100207.19;;;6.61;91.87
76434;BME280;65265;53.200;6.080;2022-12-29T16:56:02;100214.09;;;6.63;92.48
76434;BME280;65265;53.200;6.080;2022-12-29T17:00:55;100221.97;;;6.69;92.85
76434;BME280;65265;53.200;6.080;2022-12-29T17:05:47;100225.59;;;6.74;92.81
76434;BME280;65265;53.200;6.080;2022-12-29T17:10:41;100225.66;;;6.76;93.14
76434;BME280;65265;53.200;6.080;2022-12-29T17:15:49;100237.63;;;6.78;93.45
76434;BME280;65265;53.200;6.080;2022-12-29T17:20:41;100246.50;;;6.88;93.53
76434;BME280;65265;53.200;6.080;2022-12-29T17:25:35;100244.19;;;6.92;93.47
76434;BME280;65265;53.200;6.080;2022-12-29T17:30:32;100253.53;;;6.93;93.47
76434;BME280;65265;53.200;6.080;2022-12-29T17:35:24;100250.19;;;6.94;93.60
76434;BME280;65265;53.200;6.080;2022-12-29T17:40:17;100253.09;;;7.02;93.70
76434;BME280;65265;53.200;6.080;2022-12-29T17:45:13;100256.09;;;7.12;92.91
76434;BME280;65265;53.200;6.080;2022-12-29T17:50:11;100266.25;;;7.12;92.39
76434;BME280;65265;53.200;6.080;2022-12-29T17:55:03;100275.97;;;7.20;91.26
76434;BME280;65265;53.200;6.080;2022-12-29T17:59:55;100276.94;;;7.22;91.07
76434;BME280;65265;53.200;6.080;2022-12-29T18:04:46;100275.00;;;7.17;90.40
76434;BME280;65265;53.200;6.080;2022-12-29T18:09:40;100282.25;;;7.09;89.92
76434;BME280;65265;53.200;6.080;2022-12-29T18:14:31;100276.44;;;7.12;89.79
76434;BME280;65265;53.200;6.080;2022-12-29T18:19:23;100293.31;;;7.10;88.54
76434;BME280;65265;53.200;6.080;2022-12-29T18:24:14;100301.63;;;7.06;88.67
76434;BME280;65265;53.200;6.080;2022-12-29T18:29:07;100314.56;;;7.12;87.55
76434;BME280;65265;53.200;6.080;2022-12-29T18:34:01;100320.59;;;7.14;86.81
76434;BME280;65265;53.200;6.080;2022-12-29T18:38:55;100338.94;;;7.07;86.70
76434;BME280;65265;53.200;6.080;2022-12-29T18:43:48;100335.84;;;7.14;86.20
76434;BME280;65265;53.200;6.080;2022-12-29T18:48:41;100341.09;;;7.17;85.92
76434;BME280;65265;53.200;6.080;2022-12-29T18:53:32;100336.78;;;7.16;86.01
76434;BME280;65265;53.200;6.080;2022-12-29T18:58:28;100348.34;;;7.09;85.65
76434;BME280;65265;53.200;6.080;2022-12-29T19:03:20;100360.22;;;7.09;85.10
76434;BME280;65265;53.200;6.080;2022-12-29T19:08:13;100366.75;;;7.04;85.04
76434;BME280;65265;53.200;6.080;2022-12-29T19:13:08;100368.31;;;7.01;84.72
76434;BME280;65265;53.200;6.080;2022-12-29T19:18:06;100362.03;;;6.94;84.71
76434;BME280;65265;53.200;6.080;2022-12-29T19:23:04;100369.53;;;6.91;84.95
76434;BME280;65265;53.200;6.080;2022-12-29T19:27:58;100376.66;;;6.98;84.91
76434;BME280;65265;53.200;6.080;2022-12-29T19:32:52;100368.56;;;7.06;84.76
76434;BME280;65265;53.200;6.080;2022-12-29T19:37:43;100363.97;;;7.17;83.97
76434;BME280;65265;53.200;6.080;2022-12-29T19:42:35;100372.13;;;7.10;84.55
76434;BME280;65265;53.200;6.080;2022-12-29T19:47:41;100373.06;;;7.12;84.73
76434;BME280;65265;53.200;6.080;2022-12-29T19:52:35;100366.34;;;7.14;84.73
76434;BME280;65265;53.200;6.080;2022-12-29T19:57:27;100386.69;;;7.14;85.13
76434;BME280;65265;53.200;6.080;2022-12-29T20:02:23;100390.00;;;7.11;85.28
76434;BME280;65265;53.200;6.080;2022-12-29T20:07:19;100388.03;;;7.06;85.49
76434;BME280;65265;53.200;6.080;2022-12-29T20:12:13;100396.31;;;7.02;85.69
76434;BME280;65265;53.200;6.080;2022-12-29T20:17:05;100396.56;;;6.89;86.00
76434;BME280;65265;53.200;6.080;2022-12-29T20:21:58;100398.66;;;6.80;86.42
76434;BME280;65265;53.200;6.080;2022-12-29T20:26:51;100412.69;;;6.72;86.66
76434;BME280;65265;53.200;6.080;2022-12-29T20:31:44;100409.53;;;6.60;86.45
76434;BME280;65265;53.200;6.080;2022-12-29T20:36:38;100426.47;;;6.60;86.08
76434;BME280;65265;53.200;6.080;2022-12-29T20:41:30;100429.59;;;6.54;86.79
76434;BME280;65265;53.200;6.080;2022-12-29T20:46:24;100427.31;;;6.43;87.19
76434;BME280;65265;53.200;6.080;2022-12-29T20:51:16;100436.09;;;6.49;87.71
76434;BME280;65265;53.200;6.080;2022-12-29T20:56:12;100434.34;;;6.48;87.86
76434;BME280;65265;53.200;6.080;2022-12-29T21:01:06;100440.22;;;6.47;87.64
76434;BME280;65265;53.200;6.080;2022-12-29T21:06:00;100447.22;;;6.51;87.44
76434;BME280;65265;53.200;6.080;2022-12-29T21:10:52;100449.19;;;6.57;87.07
76434;BME280;65265;53.200;6.080;2022-12-29T21:15:44;100449.25;;;6.58;87.19
76434;BME280;65265;53.200;6.080;2022-12-29T21:20:36;100445.09;;;6.60;87.85
76434;BME280;65265;53.200;6.080;2022-12-29T21:25:30;100460.28;;;6.59;88.11
76434;BME280;65265;53.200;6.080;2022-12-29T21:30:26;100452.81;;;6.62;87.65
76434;BME280;65265;53.200;6.080;2022-12-29T21:35:17;100454.97;;;6.54;87.73
76434;BME280;65265;53.200;6.080;2022-12-29T21:40:10;100460.72;;;6.50;87.26
76434;BME280;65265;53.200;6.080;2022-12-29T21:45:04;100461.34;;;6.46;87.22
76434;BME280;65265;53.200;6.080;2022-12-29T21:50:24;100469.63;;;6.42;87.38
76434;BME280;65265;53.200;6.080;2022-12-29T21:55:16;100477.84;;;6.38;87.43
76434;BME280;65265;53.200;6.080;2022-12-29T22:00:10;100492.81;;;6.32;87.09
76434;BME280;65265;53.200;6.080;2022-12-29T22:05:20;100503.38;;;6.24;86.99
76434;BME280;65265;53.200;6.080;2022-12-29T22:10:29;100506.28;;;6.15;86.72
76434;BME280;65265;53.200;6.080;2022-12-29T22:15:39;100519.25;;;6.04;86.50
76434;BME280;65265;53.200;6.080;2022-12-29T22:20:33;100531.34;;;5.93;86.40
76434;BME280;65265;53.200;6.080;2022-12-29T22:25:25;100548.19;;;5.91;86.50
76434;BME280;65265;53.200;6.080;2022-12-29T22:30:17;100552.41;;;5.91;86.50
76434;BME280;65265;53.200;6.080;2022-12-29T22:35:11;100566.03;;;5.78;87.26
76434;BME280;65265;53.200;6.080;2022-12-29T22:40:03;100577.97;;;5.79;86.82
76434;BME280;65265;53.200;6.080;2022-12-29T22:44:55;100590.22;;;5.86;86.25
76434;BME280;65265;53.200;6.080;2022-12-29T22:49:47;100607.88;;;5.85;86.37
76434;BME280;65265;53.200;6.080;2022-12-29T22:54:40;100591.53;;;5.80;86.04
76434;BME280;65265;53.200;6.080;2022-12-29T22:59:32;100603.16;;;5.76;85.79
76434;BME280;65265;53.200;6.080;2022-12-29T23:04:24;100609.63;;;5.71;85.94
76434;BME280;65265;53.200;6.080;2022-12-29T23:09:17;100612.88;;;5.69;85.91
76434;BME280;65265;53.200;6.080;2022-12-29T23:14:11;100618.56;;;5.79;85.43
76434;BME280;65265;53.200;6.080;2022-12-29T23:19:03;100626.94;;;5.78;85.14
76434;BME280;65265;53.200;6.080;2022-12-29T23:23:54;100629.22;;;5.74;85.63
76434;BME280;65265;53.200;6.080;2022-12-29T23:28:47;100635.78;;;5.70;85.56
76434;BME280;65265;53.200;6.080;2022-12-29T23:33:40;100638.84;;;5.65;85.79
76434;BME280;65265;53.200;6.080;2022-12-29T23:38:32;100640.47;;;5.93;85.59
76434;BME280;65265;53.200;6.080;2022-12-29T23:43:23;100641.47;;;5.95;85.17
76434;BME280;65265;53.200;6.080;2022-12-29T23:48:15;100649.94;;;5.96;84.87
76434;BME280;65265;53.200;6.080;2022-12-29T23:53:08;100649.56;;;6.04;84.50
76434;BME280;65265;53.200;6.080;2022-12-29T23:57:59;100662.25;;;6.04;84.52
